sensor_id;sensor_type;location;lat;lon;timestamp;pressure;altitude;pressure_sealevel;temperature;humidity
9257;BME280;4665;51.368;6.782;2023-05-07T00:01:03;101359.06;;;14.36;100.00
9257;BME280;4665;51.368;6.782;2023-05-07T00:03:30;101354.38;;;14.38;100.00
9257;BME280;4665;51.368;6.782;2023-05-07T00:05:56;101357.06;;;14.38;100.00
9257;BME280;4665;51.368;6.782;2023-05-07T00:08:21;101363.59;;;14.35;100.00
9257;BME280;4665;51.368;6.782;2023-05-07T00:10:47;101355.69;;;14.34;100.00
9257;BME280;4665;51.368;6.782;2023-05-07T00:13:12;101356.72;;;14.32;100.00
9257;BME280;4665;51.368;6.782;2023-05-07T00:15:38;101354.03;;;14.32;100.00
9257;BME280;4665;51.368;6.782;2023-05-07T00:18:03;101350.69;;;14.30;100.00
9257;BME280;4665;51.368;6.782;2023-05-07T00:20:29;101357.03;;;14.29;100.00
9257;BME280;4665;51.368;6.782;2023-05-07T00:22:54;101347.31;;;14.28;100.00
9257;BME280;4665;51.368;6.782;2023-05-07T00:25:20;101346.50;;;14.28;100.00
9257;BME280;4665;51.368;6.782;2023-05-07T00:27:45;101341.13;;;14.28;100.00
9257;BME280;4665;51.368;6.782;2023-05-07T00:30:11;101335.78;;;14.28;100.00
9257;BME280;4665;51.368;6.782;2023-05-07T00:32:36;101336.59;;;14.28;100.00
9257;BME280;4665;51.368;6.782;2023-05-07T00:35:03;101335.78;;;14.28;100.00
9257;BME280;4665;51.368;6.782;2023-05-07T00:37:28;101345.66;;;14.27;100.00
9257;BME280;4665;51.368;6.782;2023-05-07T00:39:54;101343.97;;;14.26;100.00
9257;BME280;4665;51.368;6.782;2023-05-07T00:42:20;101338.13;;;14.23;100.00
9257;BME280;4665;51.368;6.782;2023-05-07T00:44:46;101343.63;;;14.21;100.00
9257;BME280;4665;51.368;6.782;2023-05-07T00:47:11;101328.72;;;14.19;100.00
9257;BME280;4665;51.368;6.782;2023-05-07T00:49:39;101329.72;;;14.18;100.00
9257;BME280;4665;51.368;6.782;2023-05-07T00:52:06;101327.22;;;14.16;100.00
9257;BME280;4665;51.368;6.782;2023-05-07T00:54:34;101327.53;;;14.13;100.00
9257;BME280;4665;51.368;6.782;2023-05-07T00:56:59;101326.03;;;14.10;100.00
9257;BME280;4665;51.368;6.782;2023-05-07T00:59:25;101329.19;;;14.06;100.00
9257;BME280;4665;51.368;6.782;2023-05-07T01:01:51;101324.31;;;14.01;100.00
9257;BME280;4665;51.368;6.782;2023-05-07T01:04:17;101321.84;;;14.00;100.00
9257;BME280;4665;51.368;6.782;2023-05-07T01:06:43;101325.50;;;13.99;100.00
9257;BME280;4665;51.368;6.782;2023-05-07T01:09:09;101320.31;;;13.97;100.00
9257;BME280;4665;51.368;6.782;2023-05-07T01:11:35;101321.31;;;13.96;100.00
9257;BME280;4665;51.368;6.782;2023-05-07T01:14:00;101322.47;;;13.94;100.00
9257;BME280;4665;51.368;6.782;2023-05-07T01:16:26;101320.28;;;13.89;100.00
9257;BME280;4665;51.368;6.782;2023-05-07T01:18:52;101320.44;;;13.87;100.00
9257;BME280;4665;51.368;6.782;2023-05-07T01:21:18;101323.59;;;13.83;100.00
9257;BME280;4665;51.368;6.782;2023-05-07T01:23:44;101322.28;;;13.79;100.00
9257;BME280;4665;51.368;6.782;2023-05-07T01:26:10;101324.94;;;13.79;100.00
9257;BME280;4665;51.368;6.782;2023-05-07T01:28:35;101322.75;;;13.74;100.00
9257;BME280;4665;51.368;6.782;2023-05-07T01:31:02;101318.09;;;13.76;100.00
9257;BME280;4665;51.368;6.782;2023-05-07T01:33:31;101320.09;;;13.74;100.00
9257;BME280;4665;51.368;6.782;2023-05-07T01:35:58;101324.41;;;13.75;100.00
9257;BME280;4665;51.368;6.782;2023-05-07T01:38:27;101322.91;;;13.73;100.00
9257;BME280;4665;51.368;6.782;2023-05-07T01:40:53;101322.75;;;13.74;100.00
9257;BME280;4665;51.368;6.782;2023-05-07T01:43:19;101318.56;;;13.72;100.00
9257;BME280;4665;51.368;6.782;2023-05-07T01:45:45;101321.91;;;13.74;100.00
9257;BME280;4665;51.368;6.782;2023-05-07T01:48:12;101324.56;;;13.74;100.00
9257;BME280;4665;51.368;6.782;2023-05-07T01:50:39;101323.94;;;13.72;100.00
9257;BME280;4665;51.368;6.782;2023-05-07T01:53:05;101323.41;;;13.68;100.00
9257;BME280;4665;51.368;6.782;2023-05-07T01:55:30;101321.72;;;13.67;100.00
9257;BME280;4665;51.368;6.782;2023-05-07T01:57:58;101311.31;;;13.64;100.00
9257;BME280;4665;51.368;6.782;2023-05-07T02:00:23;101313.84;;;13.65;100.00
9257;BME280;4665;51.368;6.782;2023-05-07T02:02:49;101320.03;;;13.66;100.00
9257;BME280;4665;51.368;6.782;2023-05-07T02:05:14;101311.66;;;13.61;100.00
9257;BME280;4665;51.368;6.782;2023-05-07T02:07:40;101306.94;;;13.55;100.00
9257;BME280;4665;51.368;6.782;2023-05-07T02:10:06;101310.28;;;13.57;100.00
9257;BME280;4665;51.368;6.782;2023-05-07T02:12:31;101313.31;;;13.62;100.00
9257;BME280;4665;51.368;6.782;2023-05-07T02:14:56;101316.00;;;13.62;100.00
9257;BME280;4665;51.368;6.782;2023-05-07T02:17:22;101303.28;;;13.56;100.00
9257;BME280;4665;51.368;6.782;2023-05-07T02:19:47;101313.66;;;13.59;100.00
9257;BME280;4665;51.368;6.782;2023-05-07T02:22:12;101318.31;;;13.57;100.00
9257;BME280;4665;51.368;6.782;2023-05-07T02:24:38;101315.16;;;13.53;100.00
9257;BME280;4665;51.368;6.782;2023-05-07T02:27:03;101307.59;;;13.49;100.00
9257;BME280;4665;51.368;6.782;2023-05-07T02:29:29;101312.78;;;13.50;100.00
9257;BME280;4665;51.368;6.782;2023-05-07T02:31:55;101318.81;;;13.52;100.00
9257;BME280;4665;51.368;6.782;2023-05-07T02:34:20;101317.28;;;13.50;100.00
9257;BME280;4665;51.368;6.782;2023-05-07T02:36:46;101303.91;;;13.41;100.00
9257;BME280;4665;51.368;6.782;2023-05-07T02:39:12;101313.78;;;13.49;100.00
9257;BME280;4665;51.368;6.782;2023-05-07T02:41:37;101320.13;;;13.48;100.00
9257;BME280;4665;51.368;6.782;2023-05-07T02:44:03;101305.22;;;13.45;100.00
9257;BME280;4665;51.368;6.782;2023-05-07T02:46:29;101300.88;;;13.44;100.00
9257;BME280;4665;51.368;6.782;2023-05-07T02:48:54;101304.53;;;13.43;100.00
9257;BME280;4665;51.368;6.782;2023-05-07T02:51:21;101303.91;;;13.41;100.00
9257;BME280;4665;51.368;6.782;2023-05-07T02:53:47;101304.38;;;13.37;100.00
9257;BME280;4665;51.368;6.782;2023-05-07T02:56:12;101314.91;;;13.38;100.00
9257;BME280;4665;51.368;6.782;2023-05-07T02:58:38;101310.03;;;13.34;100.00
9257;BME280;4665;51.368;6.782;2023-05-07T03:01:09;101314.41;;;13.35;100.00
9257;BME280;4665;51.368;6.782;2023-05-07T03:03:35;101319.91;;;13.33;100.00
9257;BME280;4665;51.368;6.782;2023-05-07T03:06:01;101327.25;;;13.31;100.00
9257;BME280;4665;51.368;6.782;2023-05-07T03:08:27;101314.88;;;13.30;100.00
9257;BME280;4665;51.368;6.782;2023-05-07T03:10:52;101316.97;;;13.26;100.00
9257;BME280;4665;51.368;6.782;2023-05-07T03:13:18;101324.19;;;13.26;100.00
9257;BME280;4665;51.368;6.782;2023-05-07T03:15:43;101327.00;;;13.24;100.00
9257;BME280;4665;51.368;6.782;2023-05-07T03:18:08;101328.84;;;13.24;100.00
9257;BME280;4665;51.368;6.782;2023-05-07T03:20:34;101320.00;;;13.23;100.00
9257;BME280;4665;51.368;6.782;2023-05-07T03:22:59;101318.28;;;13.22;100.00
9257;BME280;4665;51.368;6.782;2023-05-07T03:25:25;101331.84;;;13.21;100.00
9257;BME280;4665;51.368;6.782;2023-05-07T03:27:51;101321.16;;;13.21;100.00
9257;BME280;4665;51.368;6.782;2023-05-07T03:30:16;101310.75;;;13.18;100.00
9257;BME280;4665;51.368;6.782;2023-05-07T03:32:41;101318.41;;;13.13;100.00
9257;BME280;4665;51.368;6.782;2023-05-07T03:35:07;101316.75;;;13.12;100.00
9257;BME280;4665;51.368;6.782;2023-05-07T03:37:32;101323.94;;;13.11;100.00
9257;BME280;4665;51.368;6.782;2023-05-07T03:39:58;101317.72;;;13.11;100.00
9257;BME280;4665;51.368;6.782;2023-05-07T03:42:23;101307.50;;;13.06;100.00
9257;BME280;4665;51.368;6.782;2023-05-07T03:44:49;101308.38;;;13.07;100.00
9257;BME280;4665;51.368;6.782;2023-05-07T03:47:14;101313.03;;;13.04;100.00
9257;BME280;4665;51.368;6.782;2023-05-07T03:49:40;101315.69;;;13.04;100.00
9257;BME280;4665;51.368;6.782;2023-05-07T03:52:05;101307.00;;;13.02;100.00
9257;BME280;4665;51.368;6.782;2023-05-07T03:54:31;101315.16;;;13.01;100.00
9257;BME280;4665;51.368;6.782;2023-05-07T03:56:56;101312.63;;;12.99;100.00
9257;BME280;4665;51.368;6.782;2023-05-07T03:59:22;101310.13;;;12.98;100.00
9257;BME280;4665;51.368;6.782;2023-05-07T04:01:47;101320.00;;;12.97;100.00
9257;BME280;4665;51.368;6.782;2023-05-07T04:04:14;101332.38;;;12.98;100.00
9257;BME280;4665;51.368;6.782;2023-05-07T04:06:39;101330.69;;;12.97;100.00
9257;BME280;4665;51.368;6.782;2023-05-07T04:09:05;101335.88;;;12.99;100.00
9257;BME280;4665;51.368;6.782;2023-05-07T04:11:30;101332.69;;;12.95;100.00
9257;BME280;4665;51.368;6.782;2023-05-07T04:13:55;101335.19;;;12.97;100.00
9257;BME280;4665;51.368;6.782;2023-05-07T04:16:21;101342.53;;;12.95;100.00
9257;BME280;4665;51.368;6.782;2023-05-07T04:18:46;101333.66;;;12.94;100.00
9257;BME280;4665;51.368;6.782;2023-05-07T04:21:16;101331.81;;;12.95;100.00
9257;BME280;4665;51.368;6.782;2023-05-07T04:23:41;101331.00;;;12.94;100.00
9257;BME280;4665;51.368;6.782;2023-05-07T04:26:07;101329.16;;;12.95;100.00
9257;BME280;4665;51.368;6.782;2023-05-07T04:28:32;101334.34;;;12.96;100.00
9257;BME280;4665;51.368;6.782;2023-05-07T04:30:57;101334.91;;;13.00;100.00
9257;BME280;4665;51.368;6.782;2023-05-07T04:33:23;101333.06;;;13.00;100.00
9257;BME280;4665;51.368;6.782;2023-05-07T04:35:48;101331.06;;;13.02;100.00
9257;BME280;4665;51.368;6.782;2023-05-07T04:38:14;101337.09;;;13.04;100.00
9257;BME280;4665;51.368;6.782;2023-05-07T04:40:39;101336.91;;;13.06;100.00
9257;BME280;4665;51.368;6.782;2023-05-07T04:43:05;101332.72;;;13.03;100.00
9257;BME280;4665;51.368;6.782;2023-05-07T04:45:30;101343.59;;;13.02;100.00
9257;BME280;4665;51.368;6.782;2023-05-07T04:47:56;101335.41;;;13.03;100.00
9257;BME280;4665;51.368;6.782;2023-05-07T04:50:21;101333.06;;;13.00;100.00
9257;BME280;4665;51.368;6.782;2023-05-07T04:52:48;101334.44;;;13.04;100.00
9257;BME280;4665;51.368;6.782;2023-05-07T04:55:14;101340.75;;;13.03;100.00
9257;BME280;4665;51.368;6.782;2023-05-07T04:57:39;101338.91;;;13.04;100.00
9257;BME280;4665;51.368;6.782;2023-05-07T05:00:07;101345.13;;;13.04;100.00
9257;BME280;4665;51.368;6.782;2023-05-07T05:02:34;101338.63;;;13.07;100.00
9257;BME280;4665;51.368;6.782;2023-05-07T05:05:00;101342.94;;;13.08;100.00
9257;BME280;4665;51.368;6.782;2023-05-07T05:07:27;101341.78;;;13.11;100.00
9257;BME280;4665;51.368;6.782;2023-05-07T05:09:53;101348.00;;;13.11;100.00
9257;BME280;4665;51.368;6.782;2023-05-07T05:12:19;101348.66;;;13.13;100.00
9257;BME280;4665;51.368;6.782;2023-05-07T05:14:44;101352.22;;;13.14;100.00
9257;BME280;4665;51.368;6.782;2023-05-07T05:17:10;101356.41;;;13.16;100.00
9257;BME280;4665;51.368;6.782;2023-05-07T05:19:35;101352.84;;;13.16;100.00
9257;BME280;4665;51.368;6.782;2023-05-07T05:22:00;101351.88;;;13.17;100.00
9257;BME280;4665;51.368;6.782;2023-05-07T05:24:26;101347.34;;;13.17;100.00
9257;BME280;4665;51.368;6.782;2023-05-07T05:26:53;101353.25;;;13.21;100.00
9257;BME280;4665;51.368;6.782;2023-05-07T05:29:18;101353.94;;;13.23;100.00
9257;BME280;4665;51.368;6.782;2023-05-07T05:31:44;101356.28;;;13.26;100.00
9257;BME280;4665;51.368;6.782;2023-05-07T05:34:09;101353.59;;;13.26;100.00
9257;BME280;4665;51.368;6.782;2023-05-07T05:36:34;101360.63;;;13.27;100.00
9257;BME280;4665;51.368;6.782;2023-05-07T05:39:00;101356.81;;;13.30;100.00
9257;BME280;4665;51.368;6.782;2023-05-07T05:41:25;101356.00;;;13.29;100.00
9257;BME280;4665;51.368;6.782;2023-05-07T05:43:50;101363.72;;;13.32;100.00
9257;BME280;4665;51.368;6.782;2023-05-07T05:46:16;101367.91;;;13.35;100.00
9257;BME280;4665;51.368;6.782;2023-05-07T05:48:41;101372.09;;;13.37;100.00
9257;BME280;4665;51.368;6.782;2023-05-07T05:51:07;101379.47;;;13.43;100.00
9257;BME280;4665;51.368;6.782;2023-05-07T05:53:32;101378.03;;;13.49;100.00
9257;BME280;4665;51.368;6.782;2023-05-07T05:55:57;101381.19;;;13.53;100.00
9257;BME280;4665;51.368;6.782;2023-05-07T05:58:23;101379.56;;;13.60;100.00
9257;BME280;4665;51.368;6.782;2023-05-07T06:00:48;101366.88;;;13.62;100.00
9257;BME280;4665;51.368;6.782;2023-05-07T06:03:17;101376.94;;;13.68;100.00
9257;BME280;4665;51.368;6.782;2023-05-07T06:05:42;101369.25;;;13.73;100.00
9257;BME280;4665;51.368;6.782;2023-05-07T06:08:07;101373.97;;;13.79;100.00
9257;BME280;4665;51.368;6.782;2023-05-07T06:10:33;101375.34;;;13.83;100.00
9257;BME280;4665;51.368;6.782;2023-05-07T06:12:58;101366.81;;;13.88;100.00
9257;BME280;4665;51.368;6.782;2023-05-07T06:15:24;101375.34;;;13.92;100.00
9257;BME280;4665;51.368;6.782;2023-05-07T06:17:49;101377.41;;;13.98;100.00
9257;BME280;4665;51.368;6.782;2023-05-07T06:20:15;101385.94;;;14.01;100.00
9257;BME280;4665;51.368;6.782;2023-05-07T06:22:40;101386.63;;;14.03;100.00
9257;BME280;4665;51.368;6.782;2023-05-07T06:25:06;101390.66;;;14.07;100.00
9257;BME280;4665;51.368;6.782;2023-05-07T06:27:31;101392.16;;;14.10;100.00
9257;BME280;4665;51.368;6.782;2023-05-07T06:29:57;101400.72;;;14.14;100.00
9257;BME280;4665;51.368;6.782;2023-05-07T06:32:22;101395.19;;;14.15;100.00
9257;BME280;4665;51.368;6.782;2023-05-07T06:34:48;101396.41;;;14.21;100.00
9257;BME280;4665;51.368;6.782;2023-05-07T06:37:13;101392.53;;;14.23;100.00
9257;BME280;4665;51.368;6.782;2023-05-07T06:39:38;101391.88;;;14.29;100.00
9257;BME280;4665;51.368;6.782;2023-05-07T06:42:04;101388.88;;;14.32;100.00
9257;BME280;4665;51.368;6.782;2023-05-07T06:44:30;101394.25;;;14.41;100.00
9257;BME280;4665;51.368;6.782;2023-05-07T06:46:55;101391.06;;;14.45;100.00
9257;BME280;4665;51.368;6.782;2023-05-07T06:49:21;101392.25;;;14.51;100.00
9257;BME280;4665;51.368;6.782;2023-05-07T06:51:46;101387.59;;;14.53;100.00
9257;BME280;4665;51.368;6.782;2023-05-07T06:54:11;101394.97;;;14.59;100.00
9257;BME280;4665;51.368;6.782;2023-05-07T06:56:37;101392.47;;;14.66;100.00
9257;BME280;4665;51.368;6.782;2023-05-07T06:59:03;101393.47;;;14.73;100.00
9257;BME280;4665;51.368;6.782;2023-05-07T07:01:28;101395.16;;;14.82;100.00
9257;BME280;4665;51.368;6.782;2023-05-07T07:03:54;101384.59;;;14.89;100.00
9257;BME280;4665;51.368;6.782;2023-05-07T07:06:19;101392.97;;;14.94;100.00
9257;BME280;4665;51.368;6.782;2023-05-07T07:08:45;101386.28;;;14.98;100.00
9257;BME280;4665;51.368;6.782;2023-05-07T07:11:10;101400.00;;;15.03;100.00
9257;BME280;4665;51.368;6.782;2023-05-07T07:13:36;101395.16;;;15.07;100.00
9257;BME280;4665;51.368;6.782;2023-05-07T07:16:01;101393.16;;;15.09;100.00
9257;BME280;4665;51.368;6.782;2023-05-07T07:18:27;101391.63;;;15.14;100.00
9257;BME280;4665;51.368;6.782;2023-05-07T07:20:52;101395.81;;;15.17;100.00
9257;BME280;4665;51.368;6.782;2023-05-07T07:23:18;101386.75;;;15.18;100.00
9257;BME280;4665;51.368;6.782;2023-05-07T07:25:43;101382.72;;;15.22;100.00
9257;BME280;4665;51.368;6.782;2023-05-07T07:28:09;101384.25;;;15.25;100.00
9257;BME280;4665;51.368;6.782;2023-05-07T07:30:36;101386.56;;;15.28;100.00
9257;BME280;4665;51.368;6.782;2023-05-07T07:33:01;101390.41;;;15.33;100.00
9257;BME280;4665;51.368;6.782;2023-05-07T07:35:31;101394.94;;;15.41;100.00
9257;BME280;4665;51.368;6.782;2023-05-07T07:37:56;101392.22;;;15.49;100.00
9257;BME280;4665;51.368;6.782;2023-05-07T07:40:23;101389.53;;;15.57;100.00
9257;BME280;4665;51.368;6.782;2023-05-07T07:42:48;101391.34;;;15.65;100.00
9257;BME280;4665;51.368;6.782;2023-05-07T07:45:13;101398.22;;;15.76;100.00
9257;BME280;4665;51.368;6.782;2023-05-07T07:47:39;101398.22;;;15.76;100.00
9257;BME280;4665;51.368;6.782;2023-05-07T07:50:06;101389.81;;;15.79;100.00
9257;BME280;4665;51.368;6.782;2023-05-07T07:52:32;101386.25;;;15.87;100.00
9257;BME280;4665;51.368;6.782;2023-05-07T07:54:57;101386.38;;;15.93;100.00
9257;BME280;4665;51.368;6.782;2023-05-07T07:57:25;101399.44;;;16.05;100.00
9257;BME280;4665;51.368;6.782;2023-05-07T07:59:50;101383.44;;;16.11;100.00
9257;BME280;4665;51.368;6.782;2023-05-07T08:02:16;101386.22;;;16.26;100.00
9257;BME280;4665;51.368;6.782;2023-05-07T08:04:42;101381.09;;;16.39;100.00
9257;BME280;4665;51.368;6.782;2023-05-07T08:07:09;101392.25;;;16.51;100.00
9257;BME280;4665;51.368;6.782;2023-05-07T08:09:34;101384.97;;;16.60;100.00
9257;BME280;4665;51.368;6.782;2023-05-07T08:12:00;101393.75;;;16.77;100.00
9257;BME280;4665;51.368;6.782;2023-05-07T08:14:26;101391.34;;;16.90;100.00
9257;BME280;4665;51.368;6.782;2023-05-07T08:16:53;101390.53;;;17.04;100.00
9257;BME280;4665;51.368;6.782;2023-05-07T08:19:18;101380.97;;;17.17;100.00
9257;BME280;4665;51.368;6.782;2023-05-07T08:21:44;101381.75;;;17.25;100.00
9257;BME280;4665;51.368;6.782;2023-05-07T08:24:12;101387.13;;;17.25;100.00
9257;BME280;4665;51.368;6.782;2023-05-07T08:26:38;101379.03;;;17.25;100.00
9257;BME280;4665;51.368;6.782;2023-05-07T08:29:04;101386.09;;;17.27;100.00
9257;BME280;4665;51.368;6.782;2023-05-07T08:31:29;101388.59;;;17.28;100.00
9257;BME280;4665;51.368;6.782;2023-05-07T08:33:55;101393.56;;;17.39;100.00
9257;BME280;4665;51.368;6.782;2023-05-07T08:36:21;101392.63;;;17.47;100.00
9257;BME280;4665;51.368;6.782;2023-05-07T08:38:46;101388.16;;;17.54;100.00
9257;BME280;4665;51.368;6.782;2023-05-07T08:41:11;101385.94;;;17.58;100.00
9257;BME280;4665;51.368;6.782;2023-05-07T08:43:38;101381.38;;;17.58;100.00
9257;BME280;4665;51.368;6.782;2023-05-07T08:46:05;101382.03;;;17.60;100.00
9257;BME280;4665;51.368;6.782;2023-05-07T08:48:32;101380.91;;;17.70;100.00
9257;BME280;4665;51.368;6.782;2023-05-07T08:50:58;101376.44;;;17.77;100.00
9257;BME280;4665;51.368;6.782;2023-05-07T08:53:24;101380.75;;;17.86;100.00
9257;BME280;4665;51.368;6.782;2023-05-07T08:55:49;101371.09;;;17.92;100.00
9257;BME280;4665;51.368;6.782;2023-05-07T08:58:15;101365.81;;;18.05;100.00
9257;BME280;4665;51.368;6.782;2023-05-07T09:00:41;101370.56;;;18.18;100.00
9257;BME280;4665;51.368;6.782;2023-05-07T09:03:07;101366.72;;;18.27;100.00
9257;BME280;4665;51.368;6.782;2023-05-07T09:05:32;101373.75;;;18.49;100.00
9257;BME280;4665;51.368;6.782;2023-05-07T09:08:06;101372.09;;;18.70;100.00
9257;BME280;4665;51.368;6.782;2023-05-07T09:10:34;101363.91;;;18.57;100.00
9257;BME280;4665;51.368;6.782;2023-05-07T09:12:59;101373.31;;;18.67;100.00
9257;BME280;4665;51.368;6.782;2023-05-07T09:15:26;101364.88;;;18.70;100.00
9257;BME280;4665;51.368;6.782;2023-05-07T09:17:53;101362.03;;;18.57;100.00
9257;BME280;4665;51.368;6.782;2023-05-07T09:20:18;101363.69;;;18.58;100.00
9257;BME280;4665;51.368;6.782;2023-05-07T09:22:43;101367.50;;;18.64;100.00
9257;BME280;4665;51.368;6.782;2023-05-07T09:25:09;101365.69;;;18.71;100.00
9257;BME280;4665;51.368;6.782;2023-05-07T09:27:35;101358.59;;;18.70;100.00
9257;BME280;4665;51.368;6.782;2023-05-07T09:30:05;101356.38;;;18.74;100.00
9257;BME280;4665;51.368;6.782;2023-05-07T09:32:34;101356.06;;;18.83;100.00
9257;BME280;4665;51.368;6.782;2023-05-07T09:35:00;101361.13;;;18.93;100.00
9257;BME280;4665;51.368;6.782;2023-05-07T09:37:26;101365.16;;;19.04;100.00
9257;BME280;4665;51.368;6.782;2023-05-07T09:39:52;101362.06;;;19.07;100.00
9257;BME280;4665;51.368;6.782;2023-05-07T09:42:23;101359.81;;;19.10;100.00
9257;BME280;4665;51.368;6.782;2023-05-07T09:44:50;101360.09;;;19.22;100.00
9257;BME280;4665;51.368;6.782;2023-05-07T09:47:18;101356.38;;;19.30;100.00
9257;BME280;4665;51.368;6.782;2023-05-07T09:49:46;101364.94;;;19.33;100.00
9257;BME280;4665;51.368;6.782;2023-05-07T09:52:13;101366.38;;;19.29;100.00
9257;BME280;4665;51.368;6.782;2023-05-07T09:54:40;101362.25;;;19.33;100.00
9257;BME280;4665;51.368;6.782;2023-05-07T09:57:10;101354.28;;;19.25;100.00
9257;BME280;4665;51.368;6.782;2023-05-07T09:59:37;101351.53;;;19.19;100.00
9257;BME280;4665;51.368;6.782;2023-05-07T10:02:03;101347.78;;;19.13;100.00
9257;BME280;4665;51.368;6.782;2023-05-07T10:04:29;101347.13;;;19.11;100.00
9257;BME280;4665;51.368;6.782;2023-05-07T10:06:55;101349.00;;;19.10;100.00
9257;BME280;4665;51.368;6.782;2023-05-07T10:09:22;101351.47;;;19.12;100.00
9257;BME280;4665;51.368;6.782;2023-05-07T10:11:51;101358.16;;;19.16;100.00
9257;BME280;4665;51.368;6.782;2023-05-07T10:14:17;101347.78;;;19.13;100.00
9257;BME280;4665;51.368;6.782;2023-05-07T10:16:42;101350.53;;;19.20;100.00
9257;BME280;4665;51.368;6.782;2023-05-07T10:19:09;101346.13;;;19.19;100.00
9257;BME280;4665;51.368;6.782;2023-05-07T10:21:39;101345.34;;;19.25;100.00
9257;BME280;4665;51.368;6.782;2023-05-07T10:24:09;101349.34;;;19.29;100.00
9257;BME280;4665;51.368;6.782;2023-05-07T10:26:41;101349.13;;;19.30;100.00
9257;BME280;4665;51.368;6.782;2023-05-07T10:29:14;101355.16;;;19.32;100.00
9257;BME280;4665;51.368;6.782;2023-05-07T10:34:16;101351.50;;;19.47;100.00
9257;BME280;4665;51.368;6.782;2023-05-07T10:36:44;101350.06;;;19.51;100.00
9257;BME280;4665;51.368;6.782;2023-05-07T10:39:10;101352.34;;;19.54;100.00
9257;BME280;4665;51.368;6.782;2023-05-07T10:41:35;101352.84;;;19.64;100.00
9257;BME280;4665;51.368;6.782;2023-05-07T10:44:02;101348.56;;;19.76;100.00
9257;BME280;4665;51.368;6.782;2023-05-07T10:46:27;101352.13;;;19.84;100.00
9257;BME280;4665;51.368;6.782;2023-05-07T10:51:34;101338.41;;;19.85;100.00
9257;BME280;4665;51.368;6.782;2023-05-07T10:56:35;101338.22;;;19.93;100.00
9257;BME280;4665;51.368;6.782;2023-05-07T11:01:56;101348.88;;;20.08;100.00
9257;BME280;4665;51.368;6.782;2023-05-07T11:04:23;101350.97;;;20.13;100.00
9257;BME280;4665;51.368;6.782;2023-05-07T11:15:04;101330.75;;;20.02;100.00
9257;BME280;4665;51.368;6.782;2023-05-07T11:17:30;101336.59;;;19.99;100.00
9257;BME280;4665;51.368;6.782;2023-05-07T11:19:57;101333.69;;;20.01;100.00
9257;BME280;4665;51.368;6.782;2023-05-07T11:25:02;101338.66;;;19.97;100.00
9257;BME280;4665;51.368;6.782;2023-05-07T11:27:29;101328.25;;;19.94;100.00
9257;BME280;4665;51.368;6.782;2023-05-07T11:29:55;101331.97;;;19.93;100.00
9257;BME280;4665;51.368;6.782;2023-05-07T11:32:27;101337.00;;;19.96;100.00
9257;BME280;4665;51.368;6.782;2023-05-07T11:34:54;101335.75;;;19.99;100.00
9257;BME280;4665;51.368;6.782;2023-05-07T11:37:21;101335.94;;;19.97;100.00
9257;BME280;4665;51.368;6.782;2023-05-07T11:39:47;101334.91;;;19.98;100.00
9257;BME280;4665;51.368;6.782;2023-05-07T11:42:29;101330.72;;;19.95;100.00
9257;BME280;4665;51.368;6.782;2023-05-07T11:44:55;101325.31;;;19.95;100.00
9257;BME280;4665;51.368;6.782;2023-05-07T11:47:20;101334.91;;;19.91;100.00
9257;BME280;4665;51.368;6.782;2023-05-07T11:49:48;101334.47;;;19.88;100.00
9257;BME280;4665;51.368;6.782;2023-05-07T11:52:14;101335.06;;;19.83;100.00
9257;BME280;4665;51.368;6.782;2023-05-07T11:54:39;101341.31;;;19.84;100.00
9257;BME280;4665;51.368;6.782;2023-05-07T11:57:05;101329.84;;;19.82;100.00
9257;BME280;4665;51.368;6.782;2023-05-07T11:59:41;101338.41;;;19.85;100.00
9257;BME280;4665;51.368;6.782;2023-05-07T12:02:07;101346.09;;;19.88;100.00
9257;BME280;4665;51.368;6.782;2023-05-07T12:04:33;101339.88;;;19.88;100.00
9257;BME280;4665;51.368;6.782;2023-05-07T12:06:58;101341.94;;;19.86;100.00
9257;BME280;4665;51.368;6.782;2023-05-07T12:09:24;101338.59;;;19.84;100.00
9257;BME280;4665;51.368;6.782;2023-05-07T12:11:51;101343.63;;;19.87;100.00
9257;BME280;4665;51.368;6.782;2023-05-07T12:14:17;101339.03;;;19.87;100.00
9257;BME280;4665;51.368;6.782;2023-05-07T12:16:43;101345.28;;;19.88;100.00
9257;BME280;4665;51.368;6.782;2023-05-07T12:19:10;101350.69;;;19.88;100.00
9257;BME280;4665;51.368;6.782;2023-05-07T12:21:38;101348.63;;;19.90;100.00
9257;BME280;4665;51.368;6.782;2023-05-07T12:24:04;101342.38;;;19.89;100.00
9257;BME280;4665;51.368;6.782;2023-05-07T12:26:29;101341.53;;;19.89;100.00
9257;BME280;4665;51.368;6.782;2023-05-07T12:28:57;101344.44;;;19.87;100.00
9257;BME280;4665;51.368;6.782;2023-05-07T12:31:22;101343.63;;;19.87;100.00
9257;BME280;4665;51.368;6.782;2023-05-07T12:33:48;101344.00;;;19.84;100.00
9257;BME280;4665;51.368;6.782;2023-05-07T12:36:14;101331.31;;;19.78;100.00
9257;BME280;4665;51.368;6.782;2023-05-07T12:38:39;101328.59;;;19.71;100.00
9257;BME280;4665;51.368;6.782;2023-05-07T12:41:07;101338.56;;;19.70;100.00
9257;BME280;4665;51.368;6.782;2023-05-07T12:43:34;101328.53;;;19.64;100.00
9257;BME280;4665;51.368;6.782;2023-05-07T12:46:04;101338.56;;;19.70;100.00
9257;BME280;4665;51.368;6.782;2023-05-07T12:48:29;101352.09;;;19.70;100.00
9257;BME280;4665;51.368;6.782;2023-05-07T12:50:56;101354.78;;;19.70;100.00
9257;BME280;4665;51.368;6.782;2023-05-07T12:53:25;101353.94;;;19.70;100.00
9257;BME280;4665;51.368;6.782;2023-05-07T12:55:56;101350.56;;;19.68;100.00
9257;BME280;4665;51.368;6.782;2023-05-07T12:58:30;101352.09;;;19.70;100.00
9257;BME280;4665;51.368;6.782;2023-05-07T13:00:59;101353.75;;;19.71;100.00
9257;BME280;4665;51.368;6.782;2023-05-07T13:03:33;101358.97;;;19.73;100.00
9257;BME280;4665;51.368;6.782;2023-05-07T13:06:03;101350.84;;;19.73;100.00
9257;BME280;4665;51.368;6.782;2023-05-07T13:08:47;101363.91;;;19.69;100.00
9257;BME280;4665;51.368;6.782;2023-05-07T13:11:12;101365.59;;;19.70;100.00
9257;BME280;4665;51.368;6.782;2023-05-07T13:13:39;101367.66;;;19.68;100.00
9257;BME280;4665;51.368;6.782;2023-05-07T13:16:06;101376.34;;;19.64;100.00